sensor_id;sensor_type;location;lat;lon;timestamp;pressure;altitude;pressure_sealevel;temperature;humidity
27144;BME280;14672;50.250;8.312;2023-07-29T00:01:02;98212.69;;;22.11;78.05
27144;BME280;14672;50.250;8.312;2023-07-29T00:03:28;98202.88;;;22.01;78.43
27144;BME280;14672;50.250;8.312;2023-07-29T00:05:55;98204.09;;;22.06;77.75
27144;BME280;14672;50.250;8.312;2023-07-29T00:08:21;98206.69;;;22.09;77.57
27144;BME280;14672;50.250;8.312;2023-07-29T00:10:47;98195.00;;;22.15;77.06
27144;BME280;14672;50.250;8.312;2023-07-29T00:13:12;98195.31;;;22.11;77.30
27144;BME280;14672;50.250;8.312;2023-07-29T00:15:38;98198.00;;;22.09;77.09
27144;BME280;14672;50.250;8.312;2023-07-29T00:18:04;98195.53;;;22.00;77.61
27144;BME280;14672;50.250;8.312;2023-07-29T00:20:29;98192.84;;;22.02;77.70
27144;BME280;14672;50.250;8.312;2023-07-29T00:22:55;98193.97;;;21.99;77.97
27144;BME280;14672;50.250;8.312;2023-07-29T00:25:22;98179.75;;;22.01;77.42
27144;BME280;14672;50.250;8.312;2023-07-29T00:27:50;98183.72;;;21.98;78.58
27144;BME280;14672;50.250;8.312;2023-07-29T00:30:16;98181.75;;;22.06;77.97
27144;BME280;14672;50.250;8.312;2023-07-29T00:32:42;98186.66;;;22.11;77.58
27144;BME280;14672;50.250;8.312;2023-07-29T00:35:08;98181.53;;;22.04;77.98
27144;BME280;14672;50.250;8.312;2023-07-29T00:37:34;98169.63;;;22.08;78.15
27144;BME280;14672;50.250;8.312;2023-07-29T00:40:00;98166.28;;;22.04;78.32
27144;BME280;14672;50.250;8.312;2023-07-29T00:42:25;98174.97;;;22.04;78.35
27144;BME280;14672;50.250;8.312;2023-07-29T00:44:54;98170.84;;;21.99;78.89
27144;BME280;14672;50.250;8.312;2023-07-29T00:47:20;98167.50;;;22.08;78.15
27144;BME280;14672;50.250;8.312;2023-07-29T00:49:48;98170.84;;;22.12;77.96
27144;BME280;14672;50.250;8.312;2023-07-29T00:52:13;98170.94;;;22.07;78.36
27144;BME280;14672;50.250;8.312;2023-07-29T00:54:40;98161.63;;;22.00;78.65
27144;BME280;14672;50.250;8.312;2023-07-29T00:57:08;98159.50;;;22.01;79.07
27144;BME280;14672;50.250;8.312;2023-07-29T00:59:36;98164.63;;;22.08;78.21
27144;BME280;14672;50.250;8.312;2023-07-29T01:02:03;98150.69;;;22.07;78.27
27144;BME280;14672;50.250;8.312;2023-07-29T01:04:28;98145.91;;;21.96;78.74
27144;BME280;14672;50.250;8.312;2023-07-29T01:10:44;98133.47;;;22.01;78.41
27144;BME280;14672;50.250;8.312;2023-07-29T01:13:31;98129.47;;;22.04;78.45
27144;BME280;14672;50.250;8.312;2023-07-29T01:16:12;98148.81;;;21.96;77.90
27144;BME280;14672;50.250;8.312;2023-07-29T01:18:41;98136.38;;;22.01;77.58
27144;BME280;14672;50.250;8.312;2023-07-29T01:21:09;98151.66;;;21.83;78.94
27144;BME280;14672;50.250;8.312;2023-07-29T01:23:39;98142.53;;;21.79;79.05
27144;BME280;14672;50.250;8.312;2023-07-29T01:26:05;98145.31;;;21.84;78.32
27144;BME280;14672;50.250;8.312;2023-07-29T01:28:31;98141.72;;;21.78;78.93
27144;BME280;14672;50.250;8.312;2023-07-29T01:31:12;98129.97;;;21.76;79.29
27144;BME280;14672;50.250;8.312;2023-07-29T01:33:54;98128.72;;;21.72;79.31
27144;BME280;14672;50.250;8.312;2023-07-29T01:36:23;98133.84;;;21.66;79.66
27144;BME280;14672;50.250;8.312;2023-07-29T01:38:53;98125.59;;;21.70;79.48
27144;BME280;14672;50.250;8.312;2023-07-29T01:41:20;98134.84;;;21.68;79.38
27144;BME280;14672;50.250;8.312;2023-07-29T01:43:47;98136.69;;;21.52;80.94
27144;BME280;14672;50.250;8.312;2023-07-29T01:46:14;98143.72;;;21.57;80.48
27144;BME280;14672;50.250;8.312;2023-07-29T01:48:40;98135.13;;;21.51;81.41
27144;BME280;14672;50.250;8.312;2023-07-29T01:51:07;98135.94;;;21.65;80.67
27144;BME280;14672;50.250;8.312;2023-07-29T01:53:33;98142.28;;;21.64;80.29
27144;BME280;14672;50.250;8.312;2023-07-29T01:55:59;98136.09;;;21.41;82.22
27144;BME280;14672;50.250;8.312;2023-07-29T01:58:25;98139.78;;;21.41;82.48
27144;BME280;14672;50.250;8.312;2023-07-29T02:00:50;98141.16;;;21.53;81.24
27144;BME280;14672;50.250;8.312;2023-07-29T02:03:16;98126.44;;;21.51;82.12
27144;BME280;14672;50.250;8.312;2023-07-29T02:05:43;98122.81;;;21.64;80.81
27144;BME280;14672;50.250;8.312;2023-07-29T02:08:10;98121.13;;;21.55;81.53
27144;BME280;14672;50.250;8.312;2023-07-29T02:10:36;98125.31;;;21.41;82.86
27144;BME280;14672;50.250;8.312;2023-07-29T02:13:03;98130.16;;;21.65;81.44
27144;BME280;14672;50.250;8.312;2023-07-29T02:15:29;98120.81;;;21.59;81.82
27144;BME280;14672;50.250;8.312;2023-07-29T02:17:55;98126.59;;;21.59;81.75
27144;BME280;14672;50.250;8.312;2023-07-29T02:20:21;98122.94;;;21.72;81.04
27144;BME280;14672;50.250;8.312;2023-07-29T02:22:47;98120.72;;;21.65;81.89
27144;BME280;14672;50.250;8.312;2023-07-29T02:25:14;98124.50;;;21.73;81.34
27144;BME280;14672;50.250;8.312;2023-07-29T02:27:40;98111.13;;;21.70;81.51
27144;BME280;14672;50.250;8.312;2023-07-29T02:30:07;98110.59;;;21.71;81.84
27144;BME280;14672;50.250;8.312;2023-07-29T02:32:35;98117.38;;;21.74;81.27
27144;BME280;14672;50.250;8.312;2023-07-29T02:35:01;98103.69;;;21.74;81.89
27144;BME280;14672;50.250;8.312;2023-07-29T02:37:26;98107.69;;;21.71;81.47
27144;BME280;14672;50.250;8.312;2023-07-29T02:39:52;98108.47;;;21.72;81.83
27144;BME280;14672;50.250;8.312;2023-07-29T02:42:18;98111.38;;;21.72;82.16
27144;BME280;14672;50.250;8.312;2023-07-29T02:44:49;98103.38;;;21.78;81.22
27144;BME280;14672;50.250;8.312;2023-07-29T02:47:15;98107.59;;;21.77;81.18
27144;BME280;14672;50.250;8.312;2023-07-29T02:49:41;98112.47;;;21.55;82.98
27144;BME280;14672;50.250;8.312;2023-07-29T02:52:07;98100.59;;;21.72;82.11
27144;BME280;14672;50.250;8.312;2023-07-29T02:54:32;98091.25;;;21.79;81.43
27144;BME280;14672;50.250;8.312;2023-07-29T02:56:58;98085.91;;;21.70;82.26
27144;BME280;14672;50.250;8.312;2023-07-29T02:59:24;98088.59;;;21.81;80.91
27144;BME280;14672;50.250;8.312;2023-07-29T03:01:50;98080.00;;;21.63;82.60
27144;BME280;14672;50.250;8.312;2023-07-29T03:04:15;98084.81;;;21.73;82.26
27144;BME280;14672;50.250;8.312;2023-07-29T03:06:41;98075.69;;;21.69;81.86
27144;BME280;14672;50.250;8.312;2023-07-29T03:09:07;98066.09;;;21.74;81.08
27144;BME280;14672;50.250;8.312;2023-07-29T03:11:33;98063.34;;;21.69;81.71
27144;BME280;14672;50.250;8.312;2023-07-29T03:13:58;98066.69;;;21.73;81.28
27144;BME280;14672;50.250;8.312;2023-07-29T03:16:24;98067.78;;;21.70;81.28
27144;BME280;14672;50.250;8.312;2023-07-29T03:18:50;98056.53;;;21.66;81.50
27144;BME280;14672;50.250;8.312;2023-07-29T03:21:16;98056.88;;;21.63;82.31
27144;BME280;14672;50.250;8.312;2023-07-29T03:23:41;98061.22;;;21.69;81.43
27144;BME280;14672;50.250;8.312;2023-07-29T03:26:07;98053.00;;;21.60;81.45
27144;BME280;14672;50.250;8.312;2023-07-29T03:28:39;98044.97;;;21.66;81.30
27144;BME280;14672;50.250;8.312;2023-07-29T03:31:05;98055.34;;;21.62;81.44
27144;BME280;14672;50.250;8.312;2023-07-29T03:33:31;98056.22;;;21.57;81.47
27144;BME280;14672;50.250;8.312;2023-07-29T03:35:57;98058.00;;;21.60;80.82
27144;BME280;14672;50.250;8.312;2023-07-29T03:38:22;98054.09;;;21.57;81.09
27144;BME280;14672;50.250;8.312;2023-07-29T03:40:48;98054.09;;;21.57;80.66
27144;BME280;14672;50.250;8.312;2023-07-29T03:43:14;98064.88;;;21.57;80.63
27144;BME280;14672;50.250;8.312;2023-07-29T03:45:40;98063.19;;;21.48;80.87
27144;BME280;14672;50.250;8.312;2023-07-29T03:48:06;98064.19;;;21.37;82.06
27144;BME280;14672;50.250;8.312;2023-07-29T03:50:35;98061.44;;;21.45;81.29
27144;BME280;14672;50.250;8.312;2023-07-29T03:53:02;98054.53;;;21.48;81.40
27144;BME280;14672;50.250;8.312;2023-07-29T03:55:28;98050.06;;;21.47;81.07
27144;BME280;14672;50.250;8.312;2023-07-29T03:58:00;98052.00;;;21.58;80.97
27144;BME280;14672;50.250;8.312;2023-07-29T04:00:26;98051.41;;;21.33;81.90
27144;BME280;14672;50.250;8.312;2023-07-29T04:02:53;98052.19;;;21.46;81.27
27144;BME280;14672;50.250;8.312;2023-07-29T04:05:19;98058.41;;;21.50;80.80
27144;BME280;14672;50.250;8.312;2023-07-29T04:07:45;98056.31;;;21.51;81.28
27144;BME280;14672;50.250;8.312;2023-07-29T04:10:10;98061.31;;;21.50;81.20
27144;BME280;14672;50.250;8.312;2023-07-29T04:12:36;98060.66;;;21.58;80.57
27144;BME280;14672;50.250;8.312;2023-07-29T04:15:03;98062.53;;;21.55;80.54
27144;BME280;14672;50.250;8.312;2023-07-29T04:17:34;98052.88;;;21.52;81.00
27144;BME280;14672;50.250;8.312;2023-07-29T04:20:00;98047.63;;;21.51;81.08
27144;BME280;14672;50.250;8.312;2023-07-29T04:22:26;98037.63;;;21.52;81.04
27144;BME280;14672;50.250;8.312;2023-07-29T04:24:51;98039.41;;;21.55;80.90
27144;BME280;14672;50.250;8.312;2023-07-29T04:27:17;98047.53;;;21.57;80.74
27144;BME280;14672;50.250;8.312;2023-07-29T04:29:43;98050.84;;;21.47;81.63
27144;BME280;14672;50.250;8.312;2023-07-29T04:32:08;98050.06;;;21.47;81.48
27144;BME280;14672;50.250;8.312;2023-07-29T04:34:34;98043.41;;;21.52;80.80
27144;BME280;14672;50.250;8.312;2023-07-29T04:37:00;98043.31;;;21.58;80.50
27144;BME280;14672;50.250;8.312;2023-07-29T04:39:26;98049.09;;;21.58;80.72
27144;BME280;14672;50.250;8.312;2023-07-29T04:41:52;98052.53;;;21.56;80.36
27144;BME280;14672;50.250;8.312;2023-07-29T04:44:18;98046.34;;;21.65;80.32
27144;BME280;14672;50.250;8.312;2023-07-29T04:46:43;98038.00;;;21.62;80.80
27144;BME280;14672;50.250;8.312;2023-07-29T04:49:09;98037.84;;;21.54;81.12
27144;BME280;14672;50.250;8.312;2023-07-29T04:51:35;98032.41;;;21.64;80.80
27144;BME280;14672;50.250;8.312;2023-07-29T04:54:02;98039.09;;;21.59;80.85
27144;BME280;14672;50.250;8.312;2023-07-29T04:56:28;98042.53;;;21.70;80.63
27144;BME280;14672;50.250;8.312;2023-07-29T04:58:54;98047.88;;;21.66;80.88
27144;BME280;14672;50.250;8.312;2023-07-29T05:01:19;98050.88;;;21.74;80.96
27144;BME280;14672;50.250;8.312;2023-07-29T05:03:45;98062.22;;;21.72;81.00
27144;BME280;14672;50.250;8.312;2023-07-29T05:06:11;98064.66;;;21.68;81.47
27144;BME280;14672;50.250;8.312;2023-07-29T05:08:37;98053.13;;;21.81;80.94
27144;BME280;14672;50.250;8.312;2023-07-29T05:11:05;98048.31;;;21.83;80.84
27144;BME280;14672;50.250;8.312;2023-07-29T05:13:31;98059.56;;;21.87;81.25
27144;BME280;14672;50.250;8.312;2023-07-29T05:15:57;98055.34;;;21.88;80.66
27144;BME280;14672;50.250;8.312;2023-07-29T05:18:22;98052.44;;;21.88;80.77
27144;BME280;14672;50.250;8.312;2023-07-29T05:20:49;98047.34;;;21.81;81.52
27144;BME280;14672;50.250;8.312;2023-07-29T05:23:14;98054.22;;;21.91;81.18
27144;BME280;14672;50.250;8.312;2023-07-29T05:25:40;98053.56;;;21.98;80.62
27144;BME280;14672;50.250;8.312;2023-07-29T05:28:06;98055.13;;;21.99;80.62
27144;BME280;14672;50.250;8.312;2023-07-29T05:30:32;98047.56;;;21.96;81.55
27144;BME280;14672;50.250;8.312;2023-07-29T05:33:00;98047.78;;;21.98;81.56
27144;BME280;14672;50.250;8.312;2023-07-29T05:35:26;98056.13;;;22.01;81.41
27144;BME280;14672;50.250;8.312;2023-07-29T05:37:51;98066.03;;;22.06;81.40
27144;BME280;14672;50.250;8.312;2023-07-29T05:40:17;98063.13;;;22.06;81.20
27144;BME280;14672;50.250;8.312;2023-07-29T05:42:43;98062.16;;;22.04;81.62
27144;BME280;14672;50.250;8.312;2023-07-29T05:45:13;98063.38;;;22.08;81.75
27144;BME280;14672;50.250;8.312;2023-07-29T05:47:39;98068.47;;;22.15;81.70
27144;BME280;14672;50.250;8.312;2023-07-29T05:50:05;98061.56;;;22.18;81.73
27144;BME280;14672;50.250;8.312;2023-07-29T05:52:32;98069.16;;;22.21;81.27
27144;BME280;14672;50.250;8.312;2023-07-29T05:54:57;98082.41;;;22.17;81.11
27144;BME280;14672;50.250;8.312;2023-07-29T05:57:24;98079.59;;;22.24;81.16
27144;BME280;14672;50.250;8.312;2023-07-29T05:59:50;98077.50;;;22.25;80.98
27144;BME280;14672;50.250;8.312;2023-07-29T06:02:16;98072.94;;;22.29;80.61
27144;BME280;14672;50.250;8.312;2023-07-29T06:04:41;98088.72;;;22.28;80.60
27144;BME280;14672;50.250;8.312;2023-07-29T06:07:07;98090.50;;;22.31;80.59
27144;BME280;14672;50.250;8.312;2023-07-29T06:14:25;98094.94;;;22.32;80.71
27144;BME280;14672;50.250;8.312;2023-07-29T06:16:51;98078.81;;;22.37;80.21
27144;BME280;14672;50.250;8.312;2023-07-29T06:19:19;98053.53;;;22.37;80.57
27144;BME280;14672;50.250;8.312;2023-07-29T06:21:45;98051.31;;;22.30;81.41
27144;BME280;14672;50.250;8.312;2023-07-29T06:24:11;98062.78;;;22.36;80.66
27144;BME280;14672;50.250;8.312;2023-07-29T06:26:36;98059.78;;;22.28;80.77
27144;BME280;14672;50.250;8.312;2023-07-29T06:29:02;98050.19;;;22.33;80.01
27144;BME280;14672;50.250;8.312;2023-07-29T06:31:28;98044.41;;;22.33;80.29
27144;BME280;14672;50.250;8.312;2023-07-29T06:33:55;98048.22;;;22.28;80.73
27144;BME280;14672;50.250;8.312;2023-07-29T06:36:21;98047.25;;;22.13;81.29
27144;BME280;14672;50.250;8.312;2023-07-29T06:38:47;98062.25;;;22.24;80.72
27144;BME280;14672;50.250;8.312;2023-07-29T06:41:12;98070.03;;;22.29;81.40
27144;BME280;14672;50.250;8.312;2023-07-29T06:43:38;98077.69;;;22.27;81.15
27144;BME280;14672;50.250;8.312;2023-07-29T06:46:04;98079.84;;;22.00;82.67
27144;BME280;14672;50.250;8.312;2023-07-29T06:48:30;98090.06;;;22.14;82.62
27144;BME280;14672;50.250;8.312;2023-07-29T06:50:55;98089.50;;;22.16;82.62
27144;BME280;14672;50.250;8.312;2023-07-29T06:53:29;98096.19;;;22.11;83.30
27144;BME280;14672;50.250;8.312;2023-07-29T06:55:54;98097.41;;;22.15;82.99
27144;BME280;14672;50.250;8.312;2023-07-29T06:58:21;98079.94;;;22.08;83.26
27144;BME280;14672;50.250;8.312;2023-07-29T07:00:47;98099.41;;;22.20;82.33
27144;BME280;14672;50.250;8.312;2023-07-29T07:03:12;98089.16;;;22.19;82.26
27144;BME280;14672;50.250;8.312;2023-07-29T07:05:38;98071.72;;;22.12;82.80
27144;BME280;14672;50.250;8.312;2023-07-29T07:08:04;98063.69;;;22.18;82.25
27144;BME280;14672;50.250;8.312;2023-07-29T07:10:30;98060.13;;;22.25;82.58
27144;BME280;14672;50.250;8.312;2023-07-29T07:12:55;98089.84;;;22.25;82.71
27144;BME280;14672;50.250;8.312;2023-07-29T07:15:21;98108.53;;;22.11;82.16
27144;BME280;14672;50.250;8.312;2023-07-29T07:17:47;98109.31;;;22.25;82.16
27144;BME280;14672;50.250;8.312;2023-07-29T07:20:13;98116.75;;;22.33;82.34
27144;BME280;14672;50.250;8.312;2023-07-29T07:22:38;98112.75;;;22.36;82.17
27144;BME280;14672;50.250;8.312;2023-07-29T07:25:05;98115.91;;;22.25;82.78
27144;BME280;14672;50.250;8.312;2023-07-29T07:27:31;98116.88;;;22.41;82.58
27144;BME280;14672;50.250;8.312;2023-07-29T07:29:56;98109.41;;;22.32;82.32
27144;BME280;14672;50.250;8.312;2023-07-29T07:32:22;98107.41;;;22.40;82.63
27144;BME280;14672;50.250;8.312;2023-07-29T07:34:48;98104.19;;;22.44;82.29
27144;BME280;14672;50.250;8.312;2023-07-29T07:37:13;98109.88;;;22.23;83.18
27144;BME280;14672;50.250;8.312;2023-07-29T07:39:39;98112.41;;;22.40;82.05
27144;BME280;14672;50.250;8.312;2023-07-29T07:42:05;98120.22;;;22.45;82.37
27144;BME280;14672;50.250;8.312;2023-07-29T07:44:31;98122.53;;;22.46;81.97
27144;BME280;14672;50.250;8.312;2023-07-29T07:46:57;98120.41;;;22.47;82.48
27144;BME280;14672;50.250;8.312;2023-07-29T07:49:26;98113.16;;;22.54;82.08
27144;BME280;14672;50.250;8.312;2023-07-29T07:51:52;98116.75;;;22.46;82.95
27144;BME280;14672;50.250;8.312;2023-07-29T07:54:17;98117.16;;;22.64;81.35
27144;BME280;14672;50.250;8.312;2023-07-29T07:56:43;98119.13;;;22.82;80.69
27144;BME280;14672;50.250;8.312;2023-07-29T07:59:09;98109.38;;;22.72;81.63
27144;BME280;14672;50.250;8.312;2023-07-29T08:01:37;98117.53;;;22.94;81.45
27144;BME280;14672;50.250;8.312;2023-07-29T08:04:03;98117.78;;;22.96;80.14
27144;BME280;14672;50.250;8.312;2023-07-29T08:06:30;98111.75;;;22.94;79.32
27144;BME280;14672;50.250;8.312;2023-07-29T08:08:56;98108.94;;;23.02;79.72
27144;BME280;14672;50.250;8.312;2023-07-29T08:11:22;98106.00;;;23.15;78.63
27144;BME280;14672;50.250;8.312;2023-07-29T08:13:48;98102.53;;;23.16;80.13
27144;BME280;14672;50.250;8.312;2023-07-29T08:16:14;98103.81;;;23.28;79.87
27144;BME280;14672;50.250;8.312;2023-07-29T08:18:40;98096.06;;;23.44;80.72
27144;BME280;14672;50.250;8.312;2023-07-29T08:21:06;98101.88;;;23.44;80.95
27144;BME280;14672;50.250;8.312;2023-07-29T08:23:37;98101.44;;;23.61;80.33
27144;BME280;14672;50.250;8.312;2023-07-29T08:26:05;98106.97;;;23.51;77.55
27144;BME280;14672;50.250;8.312;2023-07-29T08:28:42;98114.09;;;23.71;76.91
27144;BME280;14672;50.250;8.312;2023-07-29T08:31:07;98117.69;;;23.64;77.61
27144;BME280;14672;50.250;8.312;2023-07-29T08:33:33;98113.38;;;23.78;76.35
27144;BME280;14672;50.250;8.312;2023-07-29T08:36:00;98117.88;;;23.86;76.77
27144;BME280;14672;50.250;8.312;2023-07-29T08:38:26;98121.56;;;23.87;76.31
27144;BME280;14672;50.250;8.312;2023-07-29T08:41:25;98117.53;;;23.90;76.08
27144;BME280;14672;50.250;8.312;2023-07-29T08:44:11;98118.03;;;24.09;75.04
27144;BME280;14672;50.250;8.312;2023-07-29T08:46:39;98114.25;;;24.14;74.46
27144;BME280;14672;50.250;8.312;2023-07-29T08:49:05;98120.44;;;24.18;74.57
27144;BME280;14672;50.250;8.312;2023-07-29T08:51:32;98115.34;;;24.11;73.21
27144;BME280;14672;50.250;8.312;2023-07-29T08:53:59;98117.78;;;24.00;73.04
27144;BME280;14672;50.250;8.312;2023-07-29T08:56:25;98121.66;;;24.23;72.68
27144;BME280;14672;50.250;8.312;2023-07-29T08:58:52;98113.13;;;24.25;72.69
27144;BME280;14672;50.250;8.312;2023-07-29T09:01:18;98104.44;;;24.25;71.95
27144;BME280;14672;50.250;8.312;2023-07-29T09:03:43;98112.84;;;24.36;72.57
27144;BME280;14672;50.250;8.312;2023-07-29T09:06:09;98102.38;;;24.41;73.72
27144;BME280;14672;50.250;8.312;2023-07-29T09:08:36;98094.69;;;24.51;74.87
27144;BME280;14672;50.250;8.312;2023-07-29T09:11:02;98108.97;;;24.41;72.69
27144;BME280;14672;50.250;8.312;2023-07-29T09:13:28;98101.31;;;24.59;72.70
27144;BME280;14672;50.250;8.312;2023-07-29T09:15:57;98116.03;;;24.61;72.14
27144;BME280;14672;50.250;8.312;2023-07-29T09:18:23;98110.22;;;24.61;72.08
27144;BME280;14672;50.250;8.312;2023-07-29T09:20:51;98113.47;;;24.50;70.63
27144;BME280;14672;50.250;8.312;2023-07-29T09:23:17;98102.72;;;24.73;69.95
27144;BME280;14672;50.250;8.312;2023-07-29T09:25:46;98116.84;;;24.69;64.50
27144;BME280;14672;50.250;8.312;2023-07-29T09:28:15;98117.50;;;24.83;62.86
27144;BME280;14672;50.250;8.312;2023-07-29T09:30:45;98117.72;;;24.92;62.16
27144;BME280;14672;50.250;8.312;2023-07-29T09:33:12;98113.47;;;24.86;59.64
27144;BME280;14672;50.250;8.312;2023-07-29T09:35:38;98109.63;;;24.91;57.73
27144;BME280;14672;50.250;8.312;2023-07-29T09:38:07;98106.81;;;24.77;56.84
27144;BME280;14672;50.250;8.312;2023-07-29T09:40:38;98104.19;;;24.87;57.89
27144;BME280;14672;50.250;8.312;2023-07-29T09:43:05;98105.34;;;24.92;58.65
27144;BME280;14672;50.250;8.312;2023-07-29T09:45:34;98113.47;;;24.86;59.13
27144;BME280;14672;50.250;8.312;2023-07-29T09:48:04;98121.22;;;24.91;60.21
27144;BME280;14672;50.250;8.312;2023-07-29T09:50:35;98120.06;;;24.94;59.98
27144;BME280;14672;50.250;8.312;2023-07-29T09:53:02;98109.41;;;24.96;58.87
27144;BME280;14672;50.250;8.312;2023-07-29T09:55:28;98110.03;;;25.02;59.01
27144;BME280;14672;50.250;8.312;2023-07-29T09:58:00;98108.69;;;25.03;60.61
27144;BME280;14672;50.250;8.312;2023-07-29T10:00:30;98107.31;;;25.04;61.34
27144;BME280;14672;50.250;8.312;2023-07-29T10:02:57;98100.16;;;25.05;57.89
27144;BME280;14672;50.250;8.312;2023-07-29T10:05:26;98098.41;;;25.02;58.34
27144;BME280;14672;50.250;8.312;2023-07-29T10:07:54;98104.59;;;24.91;59.00
27144;BME280;14672;50.250;8.312;2023-07-29T10:10:20;98103.81;;;24.98;59.18
27144;BME280;14672;50.250;8.312;2023-07-29T10:12:50;98106.09;;;24.92;60.56
27144;BME280;14672;50.250;8.312;2023-07-29T10:15:17;98107.66;;;24.86;62.51
27144;BME280;14672;50.250;8.312;2023-07-29T10:17:43;98101.00;;;24.77;63.22
27144;BME280;14672;50.250;8.312;2023-07-29T10:20:11;98101.06;;;24.85;63.17
27144;BME280;14672;50.250;8.312;2023-07-29T10:22:42;98109.22;;;24.94;63.85
27144;BME280;14672;50.250;8.312;2023-07-29T10:25:23;98118.50;;;24.85;63.24
27144;BME280;14672;50.250;8.312;2023-07-29T10:27:56;98103.06;;;25.05;63.63
27144;BME280;14672;50.250;8.312;2023-07-29T10:30:28;98107.91;;;25.03;63.39
27144;BME280;14672;50.250;8.312;2023-07-29T10:33:04;98119.72;;;25.12;63.79
27144;BME280;14672;50.250;8.312;2023-07-29T10:35:32;98111.63;;;25.11;63.92
27144;BME280;14672;50.250;8.312;2023-07-29T10:38:00;98106.38;;;25.17;64.95
27144;BME280;14672;50.250;8.312;2023-07-29T10:40:26;98110.03;;;25.02;60.20
27144;BME280;14672;50.250;8.312;2023-07-29T10:43:09;98116.66;;;25.10;59.72
27144;BME280;14672;50.250;8.312;2023-07-29T10:45:39;98104.63;;;25.14;58.95
27144;BME280;14672;50.250;8.312;2023-07-29T10:48:39;98105.41;;;25.14;58.99
27144;BME280;14672;50.250;8.312;2023-07-29T10:54:03;98105.06;;;25.33;58.98
27144;BME280;14672;50.250;8.312;2023-07-29T10:56:34;98104.31;;;25.48;60.14
27144;BME280;14672;50.250;8.312;2023-07-29T11:01:42;98091.16;;;25.54;59.75
27144;BME280;14672;50.250;8.312;2023-07-29T11:10:01;98089.97;;;25.50;59.40
27144;BME280;14672;50.250;8.312;2023-07-29T11:17:58;98084.16;;;25.73;58.74
27144;BME280;14672;50.250;8.312;2023-07-29T11:20:28;98075.63;;;25.82;56.33
27144;BME280;14672;50.250;8.312;2023-07-29T11:22:57;98083.38;;;26.02;57.02
27144;BME280;14672;50.250;8.312;2023-07-29T11:25:25;98074.41;;;26.08;55.16
27144;BME280;14672;50.250;8.312;2023-07-29T11:27:53;98081.63;;;25.99;54.18
27144;BME280;14672;50.250;8.312;2023-07-29T11:30:19;98075.81;;;25.99;54.87
27144;BME280;14672;50.250;8.312;2023-07-29T11:32:46;98084.75;;;25.86;54.36
27144;BME280;14672;50.250;8.312;2023-07-29T11:35:17;98083.00;;;25.83;54.11
27144;BME280;14672;50.250;8.312;2023-07-29T11:37:48;98082.00;;;25.96;54.64
27144;BME280;14672;50.250;8.312;2023-07-29T11:40:22;98097.72;;;26.00;54.17
27144;BME280;14672;50.250;8.312;2023-07-29T11:42:50;98076.38;;;26.05;53.06
27144;BME280;14672;50.250;8.312;2023-07-29T11:45:17;98084.16;;;25.95;52.37
27144;BME280;14672;50.250;8.312;2023-07-29T11:47:43;98069.00;;;26.04;52.84
27144;BME280;14672;50.250;8.312;2023-07-29T11:50:12;98069.19;;;26.14;52.57
27144;BME280;14672;50.250;8.312;2023-07-29T11:52:44;98073.44;;;26.21;52.55
27144;BME280;14672;50.250;8.312;2023-07-29T11:55:13;98073.66;;;26.23;53.52
27144;BME280;14672;50.250;8.312;2023-07-29T11:57:41;98077.53;;;26.25;53.31
27144;BME280;14672;50.250;8.312;2023-07-29T12:00:09;98076.94;;;26.27;53.27
27144;BME280;14672;50.250;8.312;2023-07-29T12:02:41;98076.53;;;26.30;53.47
27144;BME280;14672;50.250;8.312;2023-07-29T12:05:10;98080.44;;;26.10;53.45
27144;BME280;14672;50.250;8.312;2023-07-29T12:07:39;98067.84;;;26.23;53.29
27144;BME280;14672;50.250;8.312;2023-07-29T12:10:06;98073.66;;;26.15;52.83
27144;BME280;14672;50.250;8.312;2023-07-29T12:12:32;98067.38;;;26.41;53.03
27144;BME280;14672;50.250;8.312;2023-07-29T12:14:58;98064.84;;;26.45;52.68
27144;BME280;14672;50.250;8.312;2023-07-29T12:17:24;98070.50;;;26.43;52.32
27144;BME280;14672;50.250;8.312;2023-07-29T12:19:49;98064.66;;;26.43;51.86
27144;BME280;14672;50.250;8.312;2023-07-29T12:22:20;98077.06;;;26.44;51.94
27144;BME280;14672;50.250;8.312;2023-07-29T12:24:51;98064.03;;;26.52;51.76
27144;BME280;14672;50.250;8.312;2023-07-29T12:27:17;98059.59;;;26.51;52.02
27144;BME280;14672;50.250;8.312;2023-07-29T12:29:44;98061.03;;;26.68;52.83
27144;BME280;14672;50.250;8.312;2023-07-29T12:32:11;98059.66;;;26.76;52.75
27144;BME280;14672;50.250;8.312;2023-07-29T12:34:38;98063.69;;;26.88;52.52
27144;BME280;14672;50.250;8.312;2023-07-29T12:37:06;98063.47;;;26.94;53.46
27144;BME280;14672;50.250;8.312;2023-07-29T12:39:34;98076.19;;;26.74;51.26
27144;BME280;14672;50.250;8.312;2023-07-29T12:42:02;98062.16;;;26.80;51.40
27144;BME280;14672;50.250;8.312;2023-07-29T12:44:34;98064.88;;;26.85;51.74
27144;BME280;14672;50.250;8.312;2023-07-29T12:47:02;98069.16;;;26.77;51.94
27144;BME280;14672;50.250;8.312;2023-07-29T12:49:31;98064.91;;;26.78;52.23
27144;BME280;14672;50.250;8.312;2023-07-29T12:51:59;98068.78;;;26.73;51.75
27144;BME280;14672;50.250;8.312;2023-07-29T12:54:25;98069.22;;;26.69;51.54
27144;BME280;14672;50.250;8.312;2023-07-29T12:56:51;98073.50;;;26.60;51.15
27144;BME280;14672;50.250;8.312;2023-07-29T12:59:17;98073.50;;;26.60;51.60
27144;BME280;14672;50.250;8.312;2023-07-29T13:01:46;98068.66;;;26.63;51.21
27144;BME280;14672;50.250;8.312;2023-07-29T13:04:12;98066.94;;;26.52;52.04
27144;BME280;14672;50.250;8.312;2023-07-29T13:06:38;98063.38;;;26.69;52.43
27144;BME280;14672;50.250;8.312;2023-07-29T13:09:04;98059.25;;;26.80;52.17
27144;BME280;14672;50.250;8.312;2023-07-29T13:11:31;98057.50;;;26.84;52.15
27144;BME280;14672;50.250;8.312;2023-07-29T13:13:58;98054.31;;;26.97;52.30
27144;BME280;14672;50.250;8.312;2023-07-29T13:16:24;98067.97;;;26.95;50.88
27144;BME280;14672;50.250;8.312;2023-07-29T13:18:50;98060.19;;;26.90;50.90
27144;BME280;14672;50.250;8.312;2023-07-29T13:21:15;98061.72;;;26.98;50.61
27144;BME280;14672;50.250;8.312;2023-07-29T13:23:41;98063.28;;;26.92;49.96
27144;BME280;14672;50.250;8.312;2023-07-29T13:26:07;98061.66;;;27.06;49.91